sensor_id;sensor_type;location;lat;lon;timestamp;pressure;altitude;pressure_sealevel;temperature;humidity
64792;BME280;51226;47.504;19.074;2023-01-29T00:02:45;100985.00;;;3.80;65.32
64792;BME280;51226;47.504;19.074;2023-01-29T00:05:48;100979.37;;;3.74;65.67
64792;BME280;51226;47.504;19.074;2023-01-29T00:08:51;100980.94;;;3.60;66.81
64792;BME280;51226;47.504;19.074;2023-01-29T00:11:54;100978.81;;;3.66;66.26
64792;BME280;51226;47.504;19.074;2023-01-29T00:14:57;100987.34;;;3.65;65.78
64792;BME280;51226;47.504;19.074;2023-01-29T00:18:00;100990.13;;;3.57;66.04
64792;BME280;51226;47.504;19.074;2023-01-29T00:21:02;100998.63;;;3.56;67.03
64792;BME280;51226;47.504;19.074;2023-01-29T00:24:06;100995.53;;;3.60;65.93
64792;BME280;51226;47.504;19.074;2023-01-29T00:27:09;100997.38;;;3.50;66.24
64792;BME280;51226;47.504;19.074;2023-01-29T00:30:13;101002.44;;;3.49;66.10
64792;BME280;51226;47.504;19.074;2023-01-29T00:33:20;101007.59;;;3.49;66.08
64792;BME280;51226;47.504;19.074;2023-01-29T00:36:24;101015.53;;;3.40;66.88
64792;BME280;51226;47.504;19.074;2023-01-29T00:39:27;101011.47;;;3.32;67.62
64792;BME280;51226;47.504;19.074;2023-01-29T00:42:49;101017.53;;;3.32;67.54
64792;BME280;51226;47.504;19.074;2023-01-29T00:46:12;101009.44;;;3.28;67.54
64792;BME280;51226;47.504;19.074;2023-01-29T00:49:16;101012.09;;;3.18;67.65
64792;BME280;51226;47.504;19.074;2023-01-29T00:52:18;101012.63;;;3.13;67.23
64792;BME280;51226;47.504;19.074;2023-01-29T00:55:28;101012.78;;;3.27;66.42
64792;BME280;51226;47.504;19.074;2023-01-29T00:58:30;101020.09;;;3.10;67.66
64792;BME280;51226;47.504;19.074;2023-01-29T01:01:36;101016.75;;;3.11;67.30
64792;BME280;51226;47.504;19.074;2023-01-29T01:04:57;101025.12;;;3.09;67.65
64792;BME280;51226;47.504;19.074;2023-01-29T01:08:00;101019.28;;;3.00;68.16
64792;BME280;51226;47.504;19.074;2023-01-29T01:11:05;101024.81;;;2.94;68.76
64792;BME280;51226;47.504;19.074;2023-01-29T01:14:08;101016.75;;;2.89;68.78
64792;BME280;51226;47.504;19.074;2023-01-29T01:17:11;101018.72;;;2.82;69.11
64792;BME280;51226;47.504;19.074;2023-01-29T01:20:14;101015.66;;;2.75;69.26
64792;BME280;51226;47.504;19.074;2023-01-29T01:23:18;101025.47;;;2.69;69.14
64792;BME280;51226;47.504;19.074;2023-01-29T01:26:21;101024.97;;;2.63;69.17
64792;BME280;51226;47.504;19.074;2023-01-29T01:29:24;101023.84;;;2.59;69.16
64792;BME280;51226;47.504;19.074;2023-01-29T01:32:27;101025.88;;;2.64;69.11
64792;BME280;51226;47.504;19.074;2023-01-29T01:35:29;101026.13;;;2.67;68.59
64792;BME280;51226;47.504;19.074;2023-01-29T01:38:33;101030.88;;;2.72;67.78
64792;BME280;51226;47.504;19.074;2023-01-29T01:41:35;101030.25;;;2.65;68.26
64792;BME280;51226;47.504;19.074;2023-01-29T01:45:40;101027.31;;;2.60;68.45
64792;BME280;51226;47.504;19.074;2023-01-29T01:48:17;101039.94;;;2.57;68.58
64792;BME280;51226;47.504;19.074;2023-01-29T01:51:23;101035.47;;;2.54;68.59
64792;BME280;51226;47.504;19.074;2023-01-29T01:54:30;101037.34;;;2.57;68.45
64792;BME280;51226;47.504;19.074;2023-01-29T01:57:35;101037.66;;;2.50;68.82
64792;BME280;51226;47.504;19.074;2023-01-29T02:00:37;101037.44;;;2.36;69.55
64792;BME280;51226;47.504;19.074;2023-01-29T02:03:49;101035.91;;;2.28;69.59
64792;BME280;51226;47.504;19.074;2023-01-29T02:07:14;101033.50;;;2.19;69.86
64792;BME280;51226;47.504;19.074;2023-01-29T02:10:45;101038.25;;;2.15;70.22
64792;BME280;51226;47.504;19.074;2023-01-29T02:13:48;101041.59;;;2.14;70.15
64792;BME280;51226;47.504;19.074;2023-01-29T02:17:00;101051.66;;;2.11;70.24
64792;BME280;51226;47.504;19.074;2023-01-29T02:20:09;101046.87;;;2.05;70.82
64792;BME280;51226;47.504;19.074;2023-01-29T02:33:13;101064.37;;;2.19;70.16
64792;BME280;51226;47.504;19.074;2023-01-29T02:39:28;101058.44;;;2.10;70.82
64792;BME280;51226;47.504;19.074;2023-01-29T02:46:17;101069.91;;;2.03;71.14
64792;BME280;51226;47.504;19.074;2023-01-29T02:52:50;101063.97;;;2.15;70.10
64792;BME280;51226;47.504;19.074;2023-01-29T02:56:02;101073.28;;;2.02;70.56
64792;BME280;51226;47.504;19.074;2023-01-29T02:59:15;101075.84;;;2.02;70.69
64792;BME280;51226;47.504;19.074;2023-01-29T03:02:27;101086.75;;;2.00;70.34
64792;BME280;51226;47.504;19.074;2023-01-29T03:05:50;101078.69;;;2.06;70.13
64792;BME280;51226;47.504;19.074;2023-01-29T03:09:28;101086.62;;;1.98;70.86
64792;BME280;51226;47.504;19.074;2023-01-29T03:12:38;101091.16;;;2.01;70.69
64792;BME280;51226;47.504;19.074;2023-01-29T03:15:46;101085.63;;;1.96;71.01
64792;BME280;51226;47.504;19.074;2023-01-29T03:22:07;101082.53;;;1.90;71.55
64792;BME280;51226;47.504;19.074;2023-01-29T03:25:13;101085.75;;;1.88;71.38
64792;BME280;51226;47.504;19.074;2023-01-29T03:28:37;101088.72;;;1.92;71.14
64792;BME280;51226;47.504;19.074;2023-01-29T03:32:01;101092.44;;;1.96;71.10
64792;BME280;51226;47.504;19.074;2023-01-29T03:35:13;101095.25;;;2.09;70.32
64792;BME280;51226;47.504;19.074;2023-01-29T03:38:22;101102.72;;;2.06;70.68
64792;BME280;51226;47.504;19.074;2023-01-29T03:41:35;101099.38;;;2.17;70.06
64792;BME280;51226;47.504;19.074;2023-01-29T03:48:35;101099.88;;;2.13;69.86
64792;BME280;51226;47.504;19.074;2023-01-29T03:54:44;101113.62;;;2.34;69.27
64792;BME280;51226;47.504;19.074;2023-01-29T03:58:00;101102.81;;;2.28;69.75
64792;BME280;51226;47.504;19.074;2023-01-29T04:01:20;101097.81;;;2.30;69.85
64792;BME280;51226;47.504;19.074;2023-01-29T04:04:35;101097.53;;;2.37;69.56
64792;BME280;51226;47.504;19.074;2023-01-29T04:07:40;101092.91;;;2.33;69.73
64792;BME280;51226;47.504;19.074;2023-01-29T04:10:46;101093.94;;;2.35;69.82
64792;BME280;51226;47.504;19.074;2023-01-29T04:13:51;101098.44;;;2.37;70.17
64792;BME280;51226;47.504;19.074;2023-01-29T04:16:56;101091.84;;;2.51;69.21
64792;BME280;51226;47.504;19.074;2023-01-29T04:20:04;101098.69;;;2.51;69.18
64792;BME280;51226;47.504;19.074;2023-01-29T04:23:19;101095.84;;;2.48;68.93
64792;BME280;51226;47.504;19.074;2023-01-29T04:46:56;101104.44;;;2.58;69.09
64792;BME280;51226;47.504;19.074;2023-01-29T04:50:27;101104.44;;;2.58;69.31
64792;BME280;51226;47.504;19.074;2023-01-29T05:00:19;101099.91;;;2.66;69.01
64792;BME280;51226;47.504;19.074;2023-01-29T05:03:25;101099.59;;;2.84;67.67
64792;BME280;51226;47.504;19.074;2023-01-29T05:06:30;101099.72;;;2.85;67.35
64792;BME280;51226;47.504;19.074;2023-01-29T05:09:35;101090.47;;;2.77;67.51
64792;BME280;51226;47.504;19.074;2023-01-29T05:12:40;101096.12;;;2.83;67.23
64792;BME280;51226;47.504;19.074;2023-01-29T05:15:56;101092.53;;;2.81;66.68
64792;BME280;51226;47.504;19.074;2023-01-29T05:19:00;101099.88;;;2.76;67.49
64792;BME280;51226;47.504;19.074;2023-01-29T05:22:04;101103.22;;;2.75;67.34
64792;BME280;51226;47.504;19.074;2023-01-29T05:25:28;101104.78;;;2.73;67.22
64792;BME280;51226;47.504;19.074;2023-01-29T05:28:31;101094.97;;;2.80;66.28
64792;BME280;51226;47.504;19.074;2023-01-29T05:31:34;101091.78;;;2.72;67.04
64792;BME280;51226;47.504;19.074;2023-01-29T05:34:37;101090.00;;;2.71;66.54
64792;BME280;51226;47.504;19.074;2023-01-29T05:37:40;101099.75;;;2.75;66.45
64792;BME280;51226;47.504;19.074;2023-01-29T05:40:43;101095.91;;;2.70;67.26
64792;BME280;51226;47.504;19.074;2023-01-29T05:43:46;101094.34;;;2.72;66.37
64792;BME280;51226;47.504;19.074;2023-01-29T05:46:49;101093.34;;;2.70;66.92
64792;BME280;51226;47.504;19.074;2023-01-29T05:49:53;101095.50;;;2.75;66.38
64792;BME280;51226;47.504;19.074;2023-01-29T05:52:57;101087.00;;;2.76;65.92
64792;BME280;51226;47.504;19.074;2023-01-29T05:56:01;101096.28;;;2.74;65.80
64792;BME280;51226;47.504;19.074;2023-01-29T05:59:05;101105.56;;;2.72;65.80
64792;BME280;51226;47.504;19.074;2023-01-29T06:02:08;101105.28;;;2.80;65.14
64792;BME280;51226;47.504;19.074;2023-01-29T06:05:11;101107.84;;;2.80;65.03
64792;BME280;51226;47.504;19.074;2023-01-29T06:08:15;101104.47;;;2.81;65.21
64792;BME280;51226;47.504;19.074;2023-01-29T06:11:18;101107.06;;;2.81;64.89
64792;BME280;51226;47.504;19.074;2023-01-29T06:14:22;101111.44;;;2.82;64.12
64792;BME280;51226;47.504;19.074;2023-01-29T06:17:24;101116.09;;;2.86;63.85
64792;BME280;51226;47.504;19.074;2023-01-29T06:20:27;101118.78;;;2.77;64.55
64792;BME280;51226;47.504;19.074;2023-01-29T06:23:30;101127.91;;;2.84;63.71
64792;BME280;51226;47.504;19.074;2023-01-29T06:26:33;101132.06;;;2.82;64.23
64792;BME280;51226;47.504;19.074;2023-01-29T06:29:36;101134.87;;;2.85;64.47
64792;BME280;51226;47.504;19.074;2023-01-29T06:32:39;101144.03;;;2.81;64.76
64792;BME280;51226;47.504;19.074;2023-01-29T06:35:42;101150.50;;;2.76;65.47
64792;BME280;51226;47.504;19.074;2023-01-29T06:38:45;101161.44;;;2.73;65.34
64792;BME280;51226;47.504;19.074;2023-01-29T06:41:48;101153.19;;;2.77;64.90
64792;BME280;51226;47.504;19.074;2023-01-29T06:44:51;101159.53;;;2.71;65.76
64792;BME280;51226;47.504;19.074;2023-01-29T06:47:55;101162.59;;;2.67;66.00
64792;BME280;51226;47.504;19.074;2023-01-29T06:51:06;101170.34;;;2.67;66.22
64792;BME280;51226;47.504;19.074;2023-01-29T06:54:09;101176.91;;;2.63;66.80
64792;BME280;51226;47.504;19.074;2023-01-29T06:57:12;101177.69;;;2.62;67.14
64792;BME280;51226;47.504;19.074;2023-01-29T07:00:15;101169.56;;;2.68;66.46
64792;BME280;51226;47.504;19.074;2023-01-29T07:03:19;101166.72;;;2.75;66.20
64792;BME280;51226;47.504;19.074;2023-01-29T07:06:26;101168.28;;;2.73;66.40
64792;BME280;51226;47.504;19.074;2023-01-29T07:09:29;101161.28;;;2.82;65.50
64792;BME280;51226;47.504;19.074;2023-01-29T07:12:32;101164.28;;;2.76;65.71
64792;BME280;51226;47.504;19.074;2023-01-29T07:15:35;101169.97;;;2.72;65.92
64792;BME280;51226;47.504;19.074;2023-01-29T07:18:38;101165.87;;;2.96;65.12
64792;BME280;51226;47.504;19.074;2023-01-29T07:21:41;101166.22;;;2.79;66.12
64792;BME280;51226;47.504;19.074;2023-01-29T07:24:44;101160.50;;;2.83;65.95
64792;BME280;51226;47.504;19.074;2023-01-29T07:27:47;101153.13;;;2.98;65.15
64792;BME280;51226;47.504;19.074;2023-01-29T07:30:57;101153.66;;;2.94;65.24
64792;BME280;51226;47.504;19.074;2023-01-29T07:34:00;101151.56;;;3.00;65.12
64792;BME280;51226;47.504;19.074;2023-01-29T07:37:04;101148.09;;;3.32;65.60
64792;BME280;51226;47.504;19.074;2023-01-29T07:40:08;101146.75;;;3.15;65.40
64792;BME280;51226;47.504;19.074;2023-01-29T07:43:15;101138.50;;;3.09;65.58
64792;BME280;51226;47.504;19.074;2023-01-29T07:46:18;101132.84;;;3.13;65.22
64792;BME280;51226;47.504;19.074;2023-01-29T07:49:21;101132.19;;;3.15;64.51
64792;BME280;51226;47.504;19.074;2023-01-29T07:52:24;101137.56;;;3.19;64.57
64792;BME280;51226;47.504;19.074;2023-01-29T07:55:27;101130.97;;;3.22;63.98
64792;BME280;51226;47.504;19.074;2023-01-29T07:58:30;101144.28;;;3.17;64.72
64792;BME280;51226;47.504;19.074;2023-01-29T08:01:33;101149.69;;;3.20;64.81
64792;BME280;51226;47.504;19.074;2023-01-29T08:04:36;101134.22;;;3.20;64.61
64792;BME280;51226;47.504;19.074;2023-01-29T08:07:38;101147.25;;;3.21;64.57
64792;BME280;51226;47.504;19.074;2023-01-29T08:10:42;101139.47;;;3.31;63.27
64792;BME280;51226;47.504;19.074;2023-01-29T08:13:44;101144.00;;;3.24;64.34
64792;BME280;51226;47.504;19.074;2023-01-29T08:16:49;101140.66;;;3.25;63.45
64792;BME280;51226;47.504;19.074;2023-01-29T08:19:51;101143.34;;;3.26;63.38
64792;BME280;51226;47.504;19.074;2023-01-29T08:23:03;101151.94;;;3.37;62.68
64792;BME280;51226;47.504;19.074;2023-01-29T08:26:06;101149.59;;;3.40;62.01
64792;BME280;51226;47.504;19.074;2023-01-29T08:29:10;101151.41;;;3.41;62.06
64792;BME280;51226;47.504;19.074;2023-01-29T08:32:13;101154.25;;;3.34;62.87
64792;BME280;51226;47.504;19.074;2023-01-29T08:35:16;101157.75;;;3.34;62.03
64792;BME280;51226;47.504;19.074;2023-01-29T08:38:19;101160.22;;;3.33;62.10
64792;BME280;51226;47.504;19.074;2023-01-29T08:41:23;101162.53;;;3.30;62.58
64792;BME280;51226;47.504;19.074;2023-01-29T08:44:26;101168.50;;;3.51;61.06
64792;BME280;51226;47.504;19.074;2023-01-29T08:47:29;101181.66;;;3.44;61.47
64792;BME280;51226;47.504;19.074;2023-01-29T08:50:31;101172.78;;;3.40;61.83
64792;BME280;51226;47.504;19.074;2023-01-29T08:53:36;101186.50;;;3.39;61.62
64792;BME280;51226;47.504;19.074;2023-01-29T08:56:39;101190.47;;;3.36;62.16
64792;BME280;51226;47.504;19.074;2023-01-29T08:59:42;101193.19;;;3.37;61.51
64792;BME280;51226;47.504;19.074;2023-01-29T09:02:44;101203.53;;;3.27;61.96
64792;BME280;51226;47.504;19.074;2023-01-29T09:05:48;101205.34;;;3.28;61.47
64792;BME280;51226;47.504;19.074;2023-01-29T09:08:50;101201.75;;;3.26;61.98
64792;BME280;51226;47.504;19.074;2023-01-29T09:11:54;101201.22;;;3.30;61.12
64792;BME280;51226;47.504;19.074;2023-01-29T09:14:56;101205.72;;;3.32;61.22
64792;BME280;51226;47.504;19.074;2023-01-29T09:18:02;101207.50;;;3.33;60.96
64792;BME280;51226;47.504;19.074;2023-01-29T09:21:05;101204.69;;;3.30;61.56
64792;BME280;51226;47.504;19.074;2023-01-29T09:24:09;101199.13;;;3.36;60.76
64792;BME280;51226;47.504;19.074;2023-01-29T09:27:12;101207.13;;;3.39;60.14
64792;BME280;51226;47.504;19.074;2023-01-29T09:30:15;101206.56;;;3.43;59.32
64792;BME280;51226;47.504;19.074;2023-01-29T09:33:18;101207.63;;;3.35;60.78
64792;BME280;51226;47.504;19.074;2023-01-29T09:36:22;101204.28;;;3.36;60.64
64792;BME280;51226;47.504;19.074;2023-01-29T09:39:25;101208.78;;;3.39;60.98
64792;BME280;51226;47.504;19.074;2023-01-29T09:42:39;101208.19;;;3.53;59.59
64792;BME280;51226;47.504;19.074;2023-01-29T09:46:01;101207.78;;;3.59;59.42
64792;BME280;51226;47.504;19.074;2023-01-29T09:49:24;101209.97;;;3.64;58.92
64792;BME280;51226;47.504;19.074;2023-01-29T09:52:40;101220.16;;;3.63;58.30
64792;BME280;51226;47.504;19.074;2023-01-29T09:55:59;101207.38;;;3.64;57.88
64792;BME280;51226;47.504;19.074;2023-01-29T09:59:03;101211.78;;;3.55;58.10
64792;BME280;51226;47.504;19.074;2023-01-29T10:02:47;101211.78;;;3.55;58.97
64792;BME280;51226;47.504;19.074;2023-01-29T10:06:10;101213.56;;;3.66;57.74
64792;BME280;51226;47.504;19.074;2023-01-29T10:20:01;101218.94;;;3.92;57.54
64792;BME280;51226;47.504;19.074;2023-01-29T10:23:32;101222.16;;;3.99;56.74
64792;BME280;51226;47.504;19.074;2023-01-29T10:26:37;101223.16;;;4.01;56.08
64792;BME280;51226;47.504;19.074;2023-01-29T10:29:44;101211.47;;;3.95;57.06
64792;BME280;51226;47.504;19.074;2023-01-29T10:32:48;101200.09;;;4.15;54.91
64792;BME280;51226;47.504;19.074;2023-01-29T10:36:01;101212.28;;;4.05;55.49
64792;BME280;51226;47.504;19.074;2023-01-29T10:39:20;101221.47;;;4.02;56.03
64792;BME280;51226;47.504;19.074;2023-01-29T10:42:30;101215.69;;;3.94;56.69
64792;BME280;51226;47.504;19.074;2023-01-29T10:56:26;101203.34;;;3.90;56.23
64792;BME280;51226;47.504;19.074;2023-01-29T11:00:06;101201.41;;;3.87;55.95
64792;BME280;51226;47.504;19.074;2023-01-29T11:03:25;101192.47;;;3.94;54.67
64792;BME280;51226;47.504;19.074;2023-01-29T11:06:35;101176.78;;;3.91;55.18
64792;BME280;51226;47.504;19.074;2023-01-29T11:09:56;101170.38;;;3.86;55.99
64792;BME280;51226;47.504;19.074;2023-01-29T11:13:03;101173.84;;;3.86;55.42
64792;BME280;51226;47.504;19.074;2023-01-29T11:16:07;101184.62;;;3.93;54.74
64792;BME280;51226;47.504;19.074;2023-01-29T11:19:11;101172.25;;;3.88;55.48
64792;BME280;51226;47.504;19.074;2023-01-29T11:25:22;101163.00;;;4.02;53.83
64792;BME280;51226;47.504;19.074;2023-01-29T11:28:39;101153.03;;;4.07;53.64
64792;BME280;51226;47.504;19.074;2023-01-29T11:31:42;101155.37;;;4.04;53.65
64792;BME280;51226;47.504;19.074;2023-01-29T11:38:22;101141.34;;;4.00;53.40
64792;BME280;51226;47.504;19.074;2023-01-29T11:41:25;101139.56;;;3.99;53.97
64792;BME280;51226;47.504;19.074;2023-01-29T11:47:40;101119.13;;;4.02;53.00
64792;BME280;51226;47.504;19.074;2023-01-29T11:50:51;101117.16;;;4.22;51.56
64792;BME280;51226;47.504;19.074;2023-01-29T11:53:56;101115.44;;;4.11;52.49
64792;BME280;51226;47.504;19.074;2023-01-29T11:57:01;101104.56;;;4.15;51.75
64792;BME280;51226;47.504;19.074;2023-01-29T12:00:28;101098.41;;;4.13;52.01
64792;BME280;51226;47.504;19.074;2023-01-29T12:03:38;101098.28;;;4.11;51.97
64792;BME280;51226;47.504;19.074;2023-01-29T12:06:46;101100.31;;;4.15;51.90
64792;BME280;51226;47.504;19.074;2023-01-29T12:09:56;101100.09;;;4.24;51.34
64792;BME280;51226;47.504;19.074;2023-01-29T12:13:18;101091.34;;;4.22;51.53
64792;BME280;51226;47.504;19.074;2023-01-29T12:16:28;101092.81;;;4.30;51.07
64792;BME280;51226;47.504;19.074;2023-01-29T12:19:44;101092.16;;;4.33;49.34
64792;BME280;51226;47.504;19.074;2023-01-29T12:22:55;101087.53;;;4.29;50.56
64792;BME280;51226;47.504;19.074;2023-01-29T12:26:05;101089.34;;;4.30;50.67
64792;BME280;51226;47.504;19.074;2023-01-29T12:35:50;101079.78;;;4.52;48.77
64792;BME280;51226;47.504;19.074;2023-01-29T12:38:56;101076.97;;;4.61;49.08
64792;BME280;51226;47.504;19.074;2023-01-29T12:42:04;101078.31;;;4.91;47.95
64792;BME280;51226;47.504;19.074;2023-01-29T12:45:16;101086.91;;;5.15;46.90
64792;BME280;51226;47.504;19.074;2023-01-29T12:48:29;101082.41;;;5.25;46.74
64792;BME280;51226;47.504;19.074;2023-01-29T12:51:37;101076.22;;;5.48;44.95
64792;BME280;51226;47.504;19.074;2023-01-29T12:54:51;101077.66;;;5.31;46.51
64792;BME280;51226;47.504;19.074;2023-01-29T12:58:11;101080.41;;;5.46;46.23
64792;BME280;51226;47.504;19.074;2023-01-29T13:01:29;101074.19;;;5.81;45.19
64792;BME280;51226;47.504;19.074;2023-01-29T13:04:40;101068.78;;;5.78;45.11
64792;BME280;51226;47.504;19.074;2023-01-29T13:08:03;101058.16;;;5.86;43.98
64792;BME280;51226;47.504;19.074;2023-01-29T13:14:49;101057.56;;;6.16;44.89
64792;BME280;51226;47.504;19.074;2023-01-29T13:18:06;101032.12;;;8.34;39.29
64792;BME280;51226;47.504;19.074;2023-01-29T13:21:37;101038.75;;;8.59;39.72
64792;BME280;51226;47.504;19.074;2023-01-29T13:24:41;101026.47;;;9.52;37.40
64792;BME280;51226;47.504;19.074;2023-01-29T13:27:52;101023.78;;;9.85;36.89
64792;BME280;51226;47.504;19.074;2023-01-29T13:31:17;101006.22;;;11.85;33.33
64792;BME280;51226;47.504;19.074;2023-01-29T13:37:32;100991.78;;;15.42;27.49
64792;BME280;51226;47.504;19.074;2023-01-29T13:40:36;100991.91;;;15.16;27.49
64792;BME280;51226;47.504;19.074;2023-01-29T13:43:41;101004.91;;;13.76;28.98
64792;BME280;51226;47.504;19.074;2023-01-29T13:47:21;101009.25;;;12.15;30.92
64792;BME280;51226;47.504;19.074;2023-01-29T13:50:37;101023.59;;;10.69;33.02
64792;BME280;51226;47.504;19.074;2023-01-29T13:53:51;101024.06;;;9.57;35.61
64792;BME280;51226;47.504;19.074;2023-01-29T13:56:57;101026.66;;;8.91;35.99
64792;BME280;51226;47.504;19.074;2023-01-29T14:00:04;101018.25;;;8.19;37.79
64792;BME280;51226;47.504;19.074;2023-01-29T14:06:37;101010.84;;;7.09;40.07
64792;BME280;51226;47.504;19.074;2023-01-29T14:12:45;101031.78;;;6.17;42.20
64792;BME280;51226;47.504;19.074;2023-01-29T14:18:59;101033.47;;;5.53;43.35
64792;BME280;51226;47.504;19.074;2023-01-29T14:22:14;101039.06;;;5.34;43.97
64792;BME280;51226;47.504;19.074;2023-01-29T14:25:26;101049.31;;;4.95;44.92
64792;BME280;51226;47.504;19.074;2023-01-29T14:28:31;101045.78;;;4.70;45.73
64792;BME280;51226;47.504;19.074;2023-01-29T14:34:47;101052.94;;;4.03;47.13
64792;BME280;51226;47.504;19.074;2023-01-29T14:37:53;101059.81;;;3.80;48.02
64792;BME280;51226;47.504;19.074;2023-01-29T14:41:04;101059.12;;;3.59;48.14
64792;BME280;51226;47.504;19.074;2023-01-29T14:50:50;101062.66;;;3.05;50.01
64792;BME280;51226;47.504;19.074;2023-01-29T14:54:00;101055.66;;;2.92;50.45
64792;BME280;51226;47.504;19.074;2023-01-29T14:57:09;101060.25;;;2.96;50.04
64792;BME280;51226;47.504;19.074;2023-01-29T15:00:21;101053.50;;;2.76;51.07
64792;BME280;51226;47.504;19.074;2023-01-29T15:03:38;101061.19;;;2.54;51.51
64792;BME280;51226;47.504;19.074;2023-01-29T15:06:54;101052.84;;;2.47;51.59
64792;BME280;51226;47.504;19.074;2023-01-29T15:10:08;101054.50;;;2.56;50.85
64792;BME280;51226;47.504;19.074;2023-01-29T15:13:31;101054.41;;;2.45;51.27
64792;BME280;51226;47.504;19.074;2023-01-29T15:20:31;101047.25;;;2.20;51.75
64792;BME280;51226;47.504;19.074;2023-01-29T15:23:34;101045.69;;;2.22;51.32
64792;BME280;51226;47.504;19.074;2023-01-29T15:26:37;101047.41;;;2.11;52.05
64792;BME280;51226;47.504;19.074;2023-01-29T15:30:01;101040.84;;;2.04;52.47
64792;BME280;51226;47.504;19.074;2023-01-29T15:33:07;101038.78;;;2.00;52.37
64792;BME280;51226;47.504;19.074;2023-01-29T15:36:27;101042.94;;;1.78;53.13
64792;BME280;51226;47.504;19.074;2023-01-29T15:39:41;101041.66;;;1.73;53.23
64792;BME280;51226;47.504;19.074;2023-01-29T15:42:46;101041.13;;;1.56;54.36
64792;BME280;51226;47.504;19.074;2023-01-29T15:45:52;101047.56;;;1.51;54.72
64792;BME280;51226;47.504;19.074;2023-01-29T15:49:00;101057.16;;;1.54;54.13
64792;BME280;51226;47.504;19.074;2023-01-29T15:52:16;101056.41;;;1.55;54.37
64792;BME280;51226;47.504;19.074;2023-01-29T15:55:22;101059.38;;;1.49;54.50
64792;BME280;51226;47.504;19.074;2023-01-29T15:58:30;101051.28;;;1.44;54.91
64792;BME280;51226;47.504;19.074;2023-01-29T16:01:36;101059.72;;;1.33;55.50
64792;BME280;51226;47.504;19.074;2023-01-29T16:04:40;101050.59;;;1.26;55.96
64792;BME280;51226;47.504;19.074;2023-01-29T16:07:43;101057.44;;;1.36;55.53
64792;BME280;51226;47.504;19.074;2023-01-29T16:10:51;101061.00;;;1.28;55.83
64792;BME280;51226;47.504;19.074;2023-01-29T16:13:55;101059.72;;;1.33;55.42
64792;BME280;51226;47.504;19.074;2023-01-29T16:17:22;101065.41;;;1.39;56.36
64792;BME280;51226;47.504;19.074;2023-01-29T16:20:32;101067.44;;;1.33;55.98
64792;BME280;51226;47.504;19.074;2023-01-29T16:23:45;101057.94;;;1.32;55.40
64792;BME280;51226;47.504;19.074;2023-01-29T16:26:51;101066.12;;;1.18;56.29
64792;BME280;51226;47.504;19.074;2023-01-29T16:29:54;101070.84;;;1.13;56.10
64792;BME280;51226;47.504;19.074;2023-01-29T16:33:05;101072.53;;;1.13;55.42
64792;BME280;51226;47.504;19.074;2023-01-29T16:36:17;101075.09;;;1.13;55.40
64792;BME280;51226;47.504;19.074;2023-01-29T16:39:23;101078.16;;;1.08;56.06
64792;BME280;51226;47.504;19.074;2023-01-29T16:42:28;101088.28;;;0.97;56.83
64792;BME280;51226;47.504;19.074;2023-01-29T16:45:31;101089.53;;;0.91;57.18
64792;BME280;51226;47.504;19.074;2023-01-29T16:48:34;101090.03;;;0.87;57.43
64792;BME280;51226;47.504;19.074;2023-01-29T16:51:38;101093.41;;;0.97;56.57
64792;BME280;51226;47.504;19.074;2023-01-29T16:54:43;101108.50;;;0.83;57.39
64792;BME280;51226;47.504;19.074;2023-01-29T16:57:53;101104.63;;;0.78;57.96
64792;BME280;51226;47.504;19.074;2023-01-29T17:01:06;101098.50;;;0.86;57.11
64792;BME280;51226;47.504;19.074;2023-01-29T17:04:12;101103.50;;;0.85;57.36
64792;BME280;51226;47.504;19.074;2023-01-29T17:07:17;101097.19;;;0.81;57.93
64792;BME280;51226;47.504;19.074;2023-01-29T17:10:24;101101.84;;;0.85;57.66
64792;BME280;51226;47.504;19.074;2023-01-29T17:13:33;101094.91;;;0.84;57.61
64792;BME280;51226;47.504;19.074;2023-01-29T17:16:54;101092.34;;;0.84;57.78
64792;BME280;51226;47.504;19.074;2023-01-29T17:20:01;101087.81;;;0.82;57.40
64792;BME280;51226;47.504;19.074;2023-01-29T17:23:11;101091.28;;;0.72;58.13
64792;BME280;51226;47.504;19.074;2023-01-29T17:26:14;101091.19;;;0.81;57.06
64792;BME280;51226;47.504;19.074;2023-01-29T17:29:18;101083.81;;;0.75;57.34
64792;BME280;51226;47.504;19.074;2023-01-29T17:32:23;101082.22;;;0.67;57.13
64792;BME280;51226;47.504;19.074;2023-01-29T17:35:47;101074.44;;;0.65;56.69
64792;BME280;51226;47.504;19.074;2023-01-29T17:38:50;101071.16;;;0.58;57.07
64792;BME280;51226;47.504;19.074;2023-01-29T17:41:55;101060.75;;;0.56;57.19
64792;BME280;51226;47.504;19.074;2023-01-29T17:44:59;101066.78;;;0.57;57.38
64792;BME280;51226;47.504;19.074;2023-01-29T17:48:02;101054.94;;;0.48;58.08
64792;BME280;51226;47.504;19.074;2023-01-29T17:51:08;101062.91;;;0.51;57.80
64792;BME280;51226;47.504;19.074;2023-01-29T17:54:12;101062.88;;;0.41;58.55
64792;BME280;51226;47.504;19.074;2023-01-29T17:57:15;101048.69;;;0.55;57.77
64792;BME280;51226;47.504;19.074;2023-01-29T18:00:21;101046.75;;;0.52;58.06
64792;BME280;51226;47.504;19.074;2023-01-29T18:03:26;101040.53;;;0.40;58.40
64792;BME280;51226;47.504;19.074;2023-01-29T18:06:29;101044.34;;;0.35;58.58
64792;BME280;51226;47.504;19.074;2023-01-29T18:09:32;101040.53;;;0.40;58.44
64792;BME280;51226;47.504;19.074;2023-01-29T18:12:35;101045.59;;;0.49;57.70
64792;BME280;51226;47.504;19.074;2023-01-29T18:15:38;101042.84;;;0.37;58.33
64792;BME280;51226;47.504;19.074;2023-01-29T18:18:42;101038.41;;;0.26;59.09
64792;BME280;51226;47.504;19.074;2023-01-29T18:21:45;101034.59;;;0.31;58.58
64792;BME280;51226;47.504;19.074;2023-01-29T18:24:48;101038.75;;;0.39;58.11
64792;BME280;51226;47.504;19.074;2023-01-29T18:27:51;101033.41;;;0.27;58.62
64792;BME280;51226;47.504;19.074;2023-01-29T18:30:54;101028.44;;;0.29;58.20